createdAt,value
2018-07-11T00:00:28.461Z,1008.22
2018-07-11T00:01:28.435Z,1008.19
2018-07-11T00:02:28.411Z,1008.13
2018-07-11T00:03:28.384Z,1008.09
2018-07-11T00:04:28.356Z,1008.11
2018-07-11T00:05:28.332Z,1008.07
2018-07-11T00:06:28.315Z,1008.06
2018-07-11T00:07:28.281Z,1008.05
2018-07-11T00:08:28.257Z,1008.01
2018-07-11T00:09:28.242Z,1008.04
2018-07-11T00:10:28.203Z,1007.99
2018-07-11T00:11:28.180Z,1007.97
2018-07-11T00:12:28.154Z,1007.99
2018-07-11T00:13:28.128Z,1007.99
2018-07-11T00:14:28.116Z,1008.03
2018-07-11T00:15:28.078Z,1007.98
2018-07-11T00:16:28.055Z,1008.02
2018-07-11T00:17:28.071Z,1008.08
2018-07-11T00:18:28.004Z,1008.07
2018-07-11T00:19:29.596Z,1008.02
2018-07-11T00:20:27.952Z,1008.06
2018-07-11T00:21:27.924Z,1008.04
2018-07-11T00:22:27.902Z,1008.00
2018-07-11T00:23:27.876Z,1008.01
2018-07-11T00:24:27.850Z,1007.97
2018-07-11T00:25:27.824Z,1007.98
2018-07-11T00:26:27.796Z,1008.00
2018-07-11T00:27:27.773Z,1007.96
2018-07-11T00:28:27.755Z,1007.96
2018-07-11T00:29:27.724Z,1007.94
2018-07-11T00:30:27.701Z,1007.89
2018-07-11T00:31:27.680Z,1007.90
2018-07-11T00:32:27.650Z,1007.86
2018-07-11T00:33:27.630Z,1007.94
2018-07-11T00:34:27.596Z,1007.92
2018-07-11T00:35:27.577Z,1007.92
2018-07-11T00:36:27.556Z,1007.95
2018-07-11T00:37:27.684Z,1007.93
2018-07-11T00:38:27.498Z,1007.90
2018-07-11T00:39:27.471Z,1007.85
2018-07-11T00:40:27.450Z,1007.86
2018-07-11T00:41:27.423Z,1007.84
2018-07-11T00:42:27.396Z,1007.85
2018-07-11T00:43:27.373Z,1007.89
2018-07-11T00:44:27.349Z,1007.96
2018-07-11T00:45:27.323Z,1008.01
2018-07-11T00:46:27.301Z,1007.93
2018-07-11T00:47:27.276Z,1007.86
2018-07-11T00:48:27.243Z,1007.84
2018-07-11T00:49:27.221Z,1007.85
2018-07-11T00:50:27.197Z,1007.81
2018-07-11T00:51:27.172Z,1007.81
2018-07-11T00:52:27.155Z,1007.81
2018-07-11T00:53:27.118Z,1007.81
2018-07-11T00:54:27.095Z,1007.80
2018-07-11T00:55:27.073Z,1007.80
2018-07-11T00:56:27.048Z,1007.78
2018-07-11T00:58:26.996Z,1007.79
2018-07-11T00:59:26.977Z,1007.76
2018-07-11T01:00:26.947Z,1007.79
2018-07-11T01:01:26.922Z,1007.81
2018-07-11T01:02:26.897Z,1007.76
2018-07-11T01:03:26.880Z,1007.73
2018-07-11T01:04:26.852Z,1007.68
2018-07-11T01:05:26.821Z,1007.65
2018-07-11T01:06:26.802Z,1007.63
2018-07-11T01:07:26.772Z,1007.63
2018-07-11T01:08:26.758Z,1007.61
2018-07-11T01:09:26.719Z,1007.66
2018-07-11T01:10:26.700Z,1007.60
2018-07-11T01:11:26.681Z,1007.64
2018-07-11T01:12:26.643Z,1007.61
2018-07-11T01:13:26.625Z,1007.62
2018-07-11T01:14:26.602Z,1007.66
2018-07-11T01:15:26.575Z,1007.61
2018-07-11T01:16:26.553Z,1007.63
2018-07-11T01:17:26.521Z,1007.77
2018-07-11T01:18:26.495Z,1007.95
2018-07-11T01:19:26.484Z,1008.04
2018-07-11T01:20:26.452Z,1008.11
2018-07-11T01:21:26.423Z,1008.06
2018-07-11T01:22:26.405Z,1008.02
2018-07-11T01:23:26.374Z,1007.95
2018-07-11T01:24:28.124Z,1007.95
2018-07-11T01:25:26.330Z,1007.94
2018-07-11T01:26:26.298Z,1007.89
2018-07-11T01:27:26.278Z,1007.89
2018-07-11T01:28:26.246Z,1007.97
2018-07-11T01:29:26.222Z,1007.94
2018-07-11T01:30:26.201Z,1007.92
2018-07-11T01:31:26.175Z,1007.92
2018-07-11T01:32:26.146Z,1007.91
2018-07-11T01:33:26.122Z,1007.91
2018-07-11T01:34:26.098Z,1007.92
2018-07-11T01:35:26.075Z,1007.93
2018-07-11T01:36:26.047Z,1007.97
2018-07-11T01:37:26.024Z,1008.00
2018-07-11T01:38:26.011Z,1008.00
2018-07-11T01:39:25.975Z,1007.98
2018-07-11T01:40:25.952Z,1007.88
2018-07-11T01:41:25.921Z,1007.84
2018-07-11T01:42:25.894Z,1007.82
2018-07-11T01:43:27.612Z,1007.89
2018-07-11T01:44:25.856Z,1007.90
2018-07-11T01:45:25.818Z,1007.89
2018-07-11T01:46:25.798Z,1007.93
2018-07-11T01:47:25.764Z,1007.94
2018-07-11T01:48:25.741Z,1007.94
2018-07-11T01:49:25.715Z,1007.85
2018-07-11T01:50:25.695Z,1007.78
2018-07-11T01:51:25.665Z,1007.77
2018-07-11T01:52:25.638Z,1007.77
2018-07-11T01:53:25.610Z,1007.80
2018-07-11T01:54:25.586Z,1007.85
2018-07-11T01:55:25.560Z,1007.88
2018-07-11T01:56:25.535Z,1007.83
2018-07-11T01:57:25.512Z,1007.85
2018-07-11T01:58:25.481Z,1007.83
2018-07-11T01:59:25.456Z,1007.83
2018-07-11T02:00:25.450Z,1007.84
2018-07-11T02:01:25.410Z,1007.82
2018-07-11T02:02:25.383Z,1007.84
2018-07-11T02:03:25.362Z,1007.84
2018-07-11T02:04:25.331Z,1007.80
2018-07-11T02:05:25.304Z,1007.79
2018-07-11T02:06:25.284Z,1007.78
2018-07-11T02:07:25.254Z,1007.76
2018-07-11T02:08:25.227Z,1007.72
2018-07-11T02:09:25.239Z,1007.73
2018-07-11T02:10:25.174Z,1007.73
2018-07-11T02:11:25.156Z,1007.73
2018-07-11T02:12:25.122Z,1007.70
2018-07-11T02:13:25.098Z,1007.76
2018-07-11T02:14:25.076Z,1007.75
2018-07-11T02:15:25.046Z,1007.70
2018-07-11T02:16:25.021Z,1007.71
2018-07-11T02:17:24.993Z,1007.67
2018-07-11T02:18:24.966Z,1007.63
2018-07-11T02:19:24.940Z,1007.65
2018-07-11T02:20:24.913Z,1007.62
2018-07-11T02:21:24.886Z,1007.58
2018-07-11T02:22:24.863Z,1007.58
2018-07-11T02:23:24.830Z,1007.57
2018-07-11T02:24:24.811Z,1007.58
2018-07-11T02:25:24.787Z,1007.60
2018-07-11T02:26:24.757Z,1007.57
2018-07-11T02:27:24.729Z,1007.57
2018-07-11T02:28:24.706Z,1007.53
2018-07-11T02:29:24.681Z,1007.48
2018-07-11T02:30:24.658Z,1007.48
2018-07-11T02:31:24.627Z,1007.46
2018-07-11T02:32:24.607Z,1007.44
2018-07-11T02:33:24.578Z,1007.44
2018-07-11T02:34:24.549Z,1007.41
2018-07-11T02:35:24.528Z,1007.38
2018-07-11T02:36:24.498Z,1007.33
2018-07-11T02:37:24.485Z,1007.33
2018-07-11T02:38:24.448Z,1007.30
2018-07-11T02:39:24.421Z,1007.37
2018-07-11T02:40:24.412Z,1007.33
2018-07-11T02:41:24.368Z,1007.31
2018-07-11T02:42:24.341Z,1007.35
2018-07-11T02:43:24.319Z,1007.33
2018-07-11T02:44:24.289Z,1007.37
2018-07-11T02:46:24.252Z,1007.42
2018-07-11T02:47:24.219Z,1007.44
2018-07-11T02:48:24.185Z,1007.47
2018-07-11T02:49:24.163Z,1007.44
2018-07-11T02:50:24.129Z,1007.44
2018-07-11T02:51:24.110Z,1007.39
2018-07-11T02:52:24.075Z,1007.43
2018-07-11T02:53:24.051Z,1007.43
2018-07-11T02:54:24.032Z,1007.44
2018-07-11T02:55:24.002Z,1007.44
2018-07-11T02:56:23.975Z,1007.45
2018-07-11T02:57:23.949Z,1007.48
2018-07-11T02:58:23.924Z,1007.49
2018-07-11T02:59:23.895Z,1007.48
2018-07-11T03:00:23.873Z,1007.44
2018-07-11T03:01:23.839Z,1007.46
2018-07-11T03:02:23.817Z,1007.45
2018-07-11T03:03:23.787Z,1007.44
2018-07-11T03:04:23.760Z,1007.42
2018-07-11T03:05:23.738Z,1007.45
2018-07-11T03:06:23.707Z,1007.42
2018-07-11T03:07:23.683Z,1007.45
2018-07-11T03:08:23.658Z,1007.42
2018-07-11T03:09:23.635Z,1007.43
2018-07-11T03:10:23.602Z,1007.41
2018-07-11T03:11:23.573Z,1007.42
2018-07-11T03:12:23.552Z,1007.39
2018-07-11T03:13:23.522Z,1007.37
2018-07-11T03:14:23.504Z,1007.38
2018-07-11T03:15:23.481Z,1007.36
2018-07-11T03:16:23.458Z,1007.31
2018-07-11T03:17:23.426Z,1007.32
2018-07-11T03:18:23.392Z,1007.34
2018-07-11T03:19:23.373Z,1007.36
2018-07-11T03:20:23.341Z,1007.31
2018-07-11T03:21:23.317Z,1007.35
2018-07-11T03:22:23.291Z,1007.33
2018-07-11T03:23:23.261Z,1007.32
2018-07-11T03:24:23.238Z,1007.30
2018-07-11T03:25:23.204Z,1007.28
2018-07-11T03:26:23.195Z,1007.23
2018-07-11T03:27:23.157Z,1007.21
2018-07-11T03:28:23.136Z,1007.26
2018-07-11T03:29:23.119Z,1007.19
2018-07-11T03:30:23.080Z,1007.20
2018-07-11T03:31:23.056Z,1007.20
2018-07-11T03:32:23.081Z,1007.17
2018-07-11T03:33:22.998Z,1007.17
2018-07-11T03:34:22.974Z,1007.15
2018-07-11T03:35:22.957Z,1007.13
2018-07-11T03:36:22.915Z,1007.13
2018-07-11T03:37:22.895Z,1007.12
2018-07-11T03:38:22.873Z,1007.10
2018-07-11T03:39:22.840Z,1007.12
2018-07-11T03:40:22.829Z,1007.10
2018-07-11T03:41:22.791Z,1007.12
2018-07-11T03:42:22.765Z,1007.12
2018-07-11T03:43:22.746Z,1007.08
2018-07-11T03:44:22.710Z,1007.07
2018-07-11T03:45:22.683Z,1007.07
2018-07-11T03:46:22.671Z,1007.07
2018-07-11T03:47:22.629Z,1007.02
2018-07-11T03:48:22.604Z,1007.04
2018-07-11T03:49:22.582Z,1007.02
2018-07-11T03:50:22.558Z,1007.00
2018-07-11T03:51:22.530Z,1007.02
2018-07-11T03:52:22.504Z,1006.98
2018-07-11T03:53:22.475Z,1007.02
2018-07-11T03:54:22.457Z,1007.02
2018-07-11T03:55:22.423Z,1007.02
2018-07-11T03:56:22.399Z,1007.02
2018-07-11T03:57:22.372Z,1007.04
2018-07-11T03:58:22.346Z,1007.04
2018-07-11T03:59:22.308Z,1007.10
2018-07-11T04:00:22.294Z,1007.06
2018-07-11T04:01:22.262Z,1007.07
2018-07-11T04:02:22.237Z,1007.08
2018-07-11T04:03:22.209Z,1007.09
2018-07-11T04:04:22.187Z,1007.14
2018-07-11T04:05:22.160Z,1007.14
2018-07-11T04:06:22.132Z,1007.08
2018-07-11T04:07:22.107Z,1007.12
2018-07-11T04:08:22.075Z,1007.11
2018-07-11T04:09:22.048Z,1007.10
2018-07-11T04:10:22.029Z,1007.12
2018-07-11T04:11:22.003Z,1007.08
2018-07-11T04:12:21.977Z,1007.13
2018-07-11T04:13:21.961Z,1007.10
2018-07-11T04:14:21.923Z,1007.11
2018-07-11T04:15:21.895Z,1007.09
2018-07-11T04:16:21.870Z,1007.05
2018-07-11T04:18:21.834Z,1007.04
2018-07-11T04:19:21.791Z,1007.01
2018-07-11T04:20:21.766Z,1007.02
2018-07-11T04:21:21.743Z,1007.03
2018-07-11T04:22:21.717Z,1007.05
2018-07-11T04:23:21.687Z,1007.01
2018-07-11T04:24:21.661Z,1007.06
2018-07-11T04:25:21.636Z,1007.05
2018-07-11T04:26:21.608Z,1007.07
2018-07-11T04:27:21.583Z,1007.05
2018-07-11T04:28:21.558Z,1007.05
2018-07-11T04:29:21.534Z,1007.06
2018-07-11T04:30:21.504Z,1007.08
2018-07-11T04:31:21.475Z,1007.08
2018-07-11T04:32:21.464Z,1007.06
2018-07-11T04:33:21.474Z,1007.06
2018-07-11T04:34:21.402Z,1007.05
2018-07-11T04:35:21.389Z,1007.03
2018-07-11T04:36:21.350Z,1007.04
2018-07-11T04:37:21.323Z,1007.03
2018-07-11T04:38:21.298Z,1007.01
2018-07-11T04:39:21.272Z,1007.03
2018-07-11T04:40:21.245Z,1007.04
2018-07-11T04:41:21.216Z,1007.04
2018-07-11T04:42:21.190Z,1007.04
2018-07-11T04:43:21.171Z,1007.08
2018-07-11T04:44:21.137Z,1007.07
2018-07-11T04:45:21.109Z,1007.11
2018-07-11T04:46:21.091Z,1007.06
2018-07-11T04:47:21.074Z,1007.07
2018-07-11T04:48:21.043Z,1007.11
2018-07-11T04:49:21.015Z,1007.15
2018-07-11T04:50:20.992Z,1007.12
2018-07-11T04:51:20.962Z,1007.11
2018-07-11T04:52:20.948Z,1007.11
2018-07-11T04:53:20.912Z,1007.13
2018-07-11T04:54:20.885Z,1007.12
2018-07-11T04:55:20.867Z,1007.05
2018-07-11T04:56:20.833Z,1007.09
2018-07-11T04:57:20.816Z,1007.11
2018-07-11T04:58:20.786Z,1007.13
2018-07-11T04:59:20.759Z,1007.16
2018-07-11T05:00:20.740Z,1007.16
2018-07-11T05:01:27.846Z,1007.19
2018-07-11T05:03:14.021Z,1007.19
2018-07-11T05:04:13.987Z,1007.15
2018-07-11T05:06:06.815Z,1007.13
2018-07-11T05:07:06.797Z,1007.14
2018-07-11T05:08:59.894Z,1007.15
2018-07-11T05:09:59.861Z,1007.13
2018-07-11T05:10:59.918Z,1007.12
2018-07-11T05:11:59.812Z,1007.13
2018-07-11T05:12:59.787Z,1007.09
2018-07-11T05:13:59.759Z,1007.10
2018-07-11T05:14:59.731Z,1007.07
2018-07-11T05:15:59.711Z,1007.08
2018-07-11T05:16:59.682Z,1007.06
2018-07-11T05:17:59.656Z,1007.05
2018-07-11T05:18:59.630Z,1007.12
2018-07-11T05:19:59.606Z,1007.11
2018-07-11T05:20:59.585Z,1007.07
2018-07-11T05:21:59.559Z,1007.11
2018-07-11T05:22:59.535Z,1007.13
2018-07-11T05:24:00.347Z,1007.10
2018-07-11T05:24:59.497Z,1007.12
2018-07-11T05:25:59.556Z,1007.17
2018-07-11T05:26:59.456Z,1007.14
2018-07-11T05:27:59.444Z,1007.14
2018-07-11T05:28:59.377Z,1007.15
2018-07-11T05:30:00.264Z,1007.14
2018-07-11T05:30:59.347Z,1007.12
2018-07-11T05:31:59.332Z,1007.11
2018-07-11T05:33:01.256Z,1007.11
2018-07-11T05:33:59.293Z,1007.09
2018-07-11T05:34:59.249Z,1007.09
2018-07-11T05:35:59.205Z,1007.08
2018-07-11T05:36:59.179Z,1007.09
2018-07-11T05:37:59.199Z,1007.04
2018-07-11T05:38:59.135Z,1007.05
2018-07-11T05:39:59.149Z,1007.03
2018-07-11T05:40:59.129Z,1007.04
2018-07-11T05:41:59.136Z,1007.06
2018-07-11T05:42:59.748Z,1007.10
2018-07-11T05:43:59.053Z,1007.09
2018-07-11T05:44:59.025Z,1007.13
2018-07-11T05:46:58.954Z,1007.13
2018-07-11T05:47:58.956Z,1007.14
2018-07-11T05:48:58.956Z,1007.13
2018-07-11T05:49:58.908Z,1007.14
2018-07-11T05:50:58.866Z,1007.18
2018-07-11T05:51:58.912Z,1007.12
2018-07-11T05:52:58.859Z,1007.15
2018-07-11T05:53:58.816Z,1007.17
2018-07-11T05:54:58.796Z,1007.15
2018-07-11T05:55:58.755Z,1007.16
2018-07-11T05:56:58.709Z,1007.13
2018-07-11T05:57:58.683Z,1007.12
2018-07-11T05:58:58.765Z,1007.19
2018-07-11T05:59:58.708Z,1007.14
2018-07-11T06:00:59.226Z,1007.15
2018-07-11T06:01:58.618Z,1007.13
2018-07-11T06:02:58.595Z,1007.15
2018-07-11T06:03:58.563Z,1007.16
2018-07-11T06:04:59.268Z,1007.15
2018-07-11T06:05:58.565Z,1007.15
2018-07-11T06:06:58.468Z,1007.14
2018-07-11T06:07:58.434Z,1007.20
2018-07-11T06:08:58.451Z,1007.19
2018-07-11T06:10:58.341Z,1007.20
2018-07-11T06:11:58.382Z,1007.23
2018-07-11T06:12:58.333Z,1007.22
2018-07-11T06:14:58.311Z,1007.23
2018-07-11T06:15:58.308Z,1007.22
2018-07-11T06:16:58.216Z,1007.24
2018-07-11T06:18:58.188Z,1007.27
2018-07-11T06:19:58.168Z,1007.33
2018-07-11T06:20:58.120Z,1007.29
2018-07-11T06:21:58.159Z,1007.35
2018-07-11T06:22:58.110Z,1007.34
2018-07-11T06:23:58.056Z,1007.36
2018-07-11T06:25:58.021Z,1007.38
2018-07-11T06:26:58.004Z,1007.37
2018-07-11T06:27:57.969Z,1007.38
2018-07-11T06:28:57.899Z,1007.36
2018-07-11T06:29:57.959Z,1007.37
2018-07-11T06:30:57.909Z,1007.40
2018-07-11T06:31:57.891Z,1007.42
2018-07-11T06:32:57.813Z,1007.42
2018-07-11T06:33:57.833Z,1007.44
2018-07-11T06:34:57.829Z,1007.44
2018-07-11T06:35:57.762Z,1007.42
2018-07-11T06:36:57.765Z,1007.49
2018-07-11T06:37:57.855Z,1007.46
2018-07-11T06:38:57.712Z,1007.46
2018-07-11T06:39:57.707Z,1007.46
2018-07-11T06:41:01.290Z,1007.47
2018-07-11T06:41:57.672Z,1007.47
2018-07-11T06:42:57.607Z,1007.46
2018-07-11T06:43:57.593Z,1007.49
2018-07-11T06:45:57.535Z,1007.45
2018-07-11T06:46:57.537Z,1007.49
2018-07-11T06:48:57.437Z,1007.51
2018-07-11T06:49:57.455Z,1007.49
2018-07-11T06:50:57.372Z,1007.50
2018-07-11T06:51:57.396Z,1007.52
2018-07-11T06:52:57.339Z,1007.51
2018-07-11T06:53:57.293Z,1007.46
2018-07-11T06:54:57.302Z,1007.49
2018-07-11T06:55:57.249Z,1007.48
2018-07-11T06:56:57.243Z,1007.48
2018-07-11T06:57:57.193Z,1007.48
2018-07-11T06:58:57.166Z,1007.51
2018-07-11T06:59:57.133Z,1007.52
2018-07-11T07:00:57.134Z,1007.54
2018-07-11T07:01:57.105Z,1007.56
2018-07-11T07:02:57.053Z,1007.52
2018-07-11T07:03:57.050Z,1007.53
2018-07-11T07:04:57.031Z,1007.58
2018-07-11T07:05:57.052Z,1007.50
2018-07-11T07:06:56.958Z,1007.52
2018-07-11T07:07:56.960Z,1007.53
2018-07-11T07:08:56.954Z,1007.57
2018-07-11T07:09:56.928Z,1007.57
2018-07-11T07:10:56.875Z,1007.57
2018-07-11T07:11:56.868Z,1007.59
2018-07-11T07:12:56.825Z,1007.63
2018-07-11T07:13:56.813Z,1007.62
2018-07-11T07:14:56.823Z,1007.62
2018-07-11T07:15:56.765Z,1007.63
2018-07-11T07:16:56.726Z,1007.62
2018-07-11T07:17:56.711Z,1007.60
2018-07-11T07:18:56.675Z,1007.60
2018-07-11T07:19:56.686Z,1007.57
2018-07-11T07:20:56.642Z,1007.57
2018-07-11T07:21:56.611Z,1007.61
2018-07-11T07:22:56.610Z,1007.58
2018-07-11T07:23:57.226Z,1007.57
2018-07-11T07:24:56.528Z,1007.59
2018-07-11T07:25:56.525Z,1007.56
2018-07-11T07:26:56.485Z,1007.58
2018-07-11T07:27:56.451Z,1007.56
2018-07-11T07:28:56.518Z,1007.53
2018-07-11T07:29:56.432Z,1007.52
2018-07-11T07:30:56.391Z,1007.54
2018-07-11T07:31:56.364Z,1007.52
2018-07-11T07:32:56.350Z,1007.51
2018-07-11T07:33:56.318Z,1007.50
2018-07-11T07:34:56.324Z,1007.53
2018-07-11T07:35:56.268Z,1007.52
2018-07-11T07:36:56.356Z,1007.52
2018-07-11T07:37:56.220Z,1007.53
2018-07-11T07:38:56.194Z,1007.52
2018-07-11T07:39:56.170Z,1007.51
2018-07-11T07:40:56.162Z,1007.51
2018-07-11T07:41:56.167Z,1007.52
2018-07-11T07:42:56.113Z,1007.52
2018-07-11T07:43:56.088Z,1007.51
2018-07-11T07:44:56.052Z,1007.50
2018-07-11T07:45:56.052Z,1007.48
2018-07-11T07:46:56.024Z,1007.49
2018-07-11T07:47:55.995Z,1007.51
2018-07-11T07:48:55.979Z,1007.48
2018-07-11T07:49:55.970Z,1007.48
2018-07-11T07:50:55.934Z,1007.48
2018-07-11T07:51:55.902Z,1007.50
2018-07-11T07:52:55.960Z,1007.49
2018-07-11T07:53:55.855Z,1007.49
2018-07-11T07:54:55.821Z,1007.50
2018-07-11T07:55:55.793Z,1007.54
2018-07-11T07:56:55.776Z,1007.51
2018-07-11T07:57:55.782Z,1007.54
2018-07-11T07:58:55.725Z,1007.54
2018-07-11T07:59:55.744Z,1007.50
2018-07-11T08:00:55.712Z,1007.50
2018-07-11T08:01:55.654Z,1007.51
2018-07-11T08:02:55.656Z,1007.52
2018-07-11T08:03:55.614Z,1007.56
2018-07-11T08:04:55.590Z,1007.54
2018-07-11T08:05:55.561Z,1007.54
2018-07-11T08:06:55.568Z,1007.54
2018-07-11T08:07:55.526Z,1007.59
2018-07-11T08:08:55.498Z,1007.60
2018-07-11T08:09:55.508Z,1007.59
2018-07-11T08:10:55.453Z,1007.58
2018-07-11T08:11:55.425Z,1007.61
2018-07-11T08:12:55.425Z,1007.61
2018-07-11T08:13:55.382Z,1007.59
2018-07-11T08:14:55.367Z,1007.59
2018-07-11T08:15:55.345Z,1007.61
2018-07-11T08:16:55.319Z,1007.61
2018-07-11T08:17:55.291Z,1007.57
2018-07-11T08:18:55.267Z,1007.58
2018-07-11T08:19:55.256Z,1007.55
2018-07-11T08:20:55.254Z,1007.57
2018-07-11T08:21:55.197Z,1007.58
2018-07-11T08:22:55.179Z,1007.59
2018-07-11T08:23:55.168Z,1007.57
2018-07-11T08:24:55.139Z,1007.58
2018-07-11T08:25:55.103Z,1007.57
2018-07-11T08:26:55.100Z,1007.57
2018-07-11T08:27:55.067Z,1007.58
2018-07-11T08:28:55.041Z,1007.54
2018-07-11T08:29:55.018Z,1007.57
2018-07-11T08:30:55.009Z,1007.60
2018-07-11T08:31:54.989Z,1007.57
2018-07-11T08:32:54.975Z,1007.54
2018-07-11T08:33:54.939Z,1007.56
2018-07-11T08:34:54.920Z,1007.53
2018-07-11T08:35:54.881Z,1007.58
2018-07-11T08:36:54.862Z,1007.61
2018-07-11T08:37:54.852Z,1007.58
2018-07-11T08:38:54.826Z,1007.55
2018-07-11T08:39:54.796Z,1007.56
2018-07-11T08:40:55.737Z,1007.61
2018-07-11T08:41:54.752Z,1007.56
2018-07-11T08:42:55.242Z,1007.60
2018-07-11T08:43:54.707Z,1007.59
2018-07-11T08:44:54.687Z,1007.62
2018-07-11T08:45:54.669Z,1007.59
2018-07-11T08:46:54.654Z,1007.61
2018-07-11T08:47:54.641Z,1007.60
2018-07-11T08:48:54.597Z,1007.58
2018-07-11T08:49:54.572Z,1007.59
2018-07-11T08:50:54.590Z,1007.56
2018-07-11T08:51:54.529Z,1007.59
2018-07-11T08:52:54.517Z,1007.59
2018-07-11T08:53:54.482Z,1007.60
2018-07-11T08:54:54.474Z,1007.61
2018-07-11T08:55:54.462Z,1007.64
2018-07-11T08:56:54.421Z,1007.55
2018-07-11T08:57:54.388Z,1007.59
2018-07-11T08:58:54.394Z,1007.63
2018-07-11T08:59:54.362Z,1007.61
2018-07-11T09:00:54.332Z,1007.61
2018-07-11T09:01:54.312Z,1007.61
2018-07-11T09:02:54.289Z,1007.58
2018-07-11T09:03:54.314Z,1007.59
2018-07-11T09:04:54.241Z,1007.60
2018-07-11T09:05:54.222Z,1007.57
2018-07-11T09:06:54.206Z,1007.59
2018-07-11T09:07:54.198Z,1007.61
2018-07-11T09:08:54.169Z,1007.58
2018-07-11T09:09:54.140Z,1007.61
2018-07-11T09:10:54.163Z,1007.61
2018-07-11T09:11:54.745Z,1007.63
2018-07-11T09:12:54.094Z,1007.61
2018-07-11T09:13:54.742Z,1007.63
2018-07-11T09:14:54.026Z,1007.61
2018-07-11T09:15:54.105Z,1007.61
2018-07-11T09:16:54.003Z,1007.57
2018-07-11T09:17:53.991Z,1007.57
2018-07-11T09:18:53.940Z,1007.58
2018-07-11T09:19:53.943Z,1007.57
2018-07-11T09:20:53.913Z,1007.50
2018-07-11T09:21:53.877Z,1007.49
2018-07-11T09:22:53.860Z,1007.51
2018-07-11T09:23:53.867Z,1007.48
2018-07-11T09:24:53.834Z,1007.50
2018-07-11T09:25:53.794Z,1007.49
2018-07-11T09:26:53.791Z,1007.50
2018-07-11T09:27:53.771Z,1007.49
2018-07-11T09:28:53.739Z,1007.50
2018-07-11T09:29:53.711Z,1007.46
2018-07-11T09:30:53.700Z,1007.48
2018-07-11T09:31:53.701Z,1007.47
2018-07-11T09:32:53.655Z,1007.44
2018-07-11T09:33:53.641Z,1007.42
2018-07-11T09:34:53.638Z,1007.44
2018-07-11T09:35:53.635Z,1007.44
2018-07-11T09:36:53.582Z,1007.40
2018-07-11T09:37:54.275Z,1007.41
2018-07-11T09:38:53.579Z,1007.36
2018-07-11T09:39:53.528Z,1007.40
2018-07-11T09:40:53.497Z,1007.38
2018-07-11T09:41:53.474Z,1007.39
2018-07-11T09:42:53.473Z,1007.43
2018-07-11T09:43:53.435Z,1007.39
2018-07-11T09:44:53.431Z,1007.47
2018-07-11T09:45:53.408Z,1007.44
2018-07-11T09:46:53.392Z,1007.39
2018-07-11T09:47:53.376Z,1007.38
2018-07-11T09:48:53.344Z,1007.38
2018-07-11T09:49:53.323Z,1007.40
2018-07-11T09:50:53.301Z,1007.35
2018-07-11T09:51:54.268Z,1007.34
2018-07-11T09:52:53.255Z,1007.35
2018-07-11T09:53:53.249Z,1007.38
2018-07-11T09:54:53.222Z,1007.40
2018-07-11T09:55:53.193Z,1007.37
2018-07-11T09:56:53.177Z,1007.40
2018-07-11T09:57:53.181Z,1007.40
2018-07-11T09:58:53.133Z,1007.40
2018-07-11T09:59:53.114Z,1007.40
2018-07-11T10:00:53.110Z,1007.45
2018-07-11T10:01:53.078Z,1007.44
2018-07-11T10:02:53.099Z,1007.48
2018-07-11T10:03:53.044Z,1007.44
2018-07-11T10:04:53.029Z,1007.44
2018-07-11T10:05:53.053Z,1007.44
2018-07-11T10:06:53.021Z,1007.40
2018-07-11T10:07:52.965Z,1007.39
2018-07-11T10:08:52.939Z,1007.38
2018-07-11T10:09:52.935Z,1007.40
2018-07-11T10:10:52.905Z,1007.44
2018-07-11T10:11:53.811Z,1007.42
2018-07-11T10:12:52.869Z,1007.45
2018-07-11T10:13:53.780Z,1007.45
2018-07-11T10:14:52.829Z,1007.43
2018-07-11T10:15:52.806Z,1007.45
2018-07-11T10:16:52.789Z,1007.45
2018-07-11T10:17:52.786Z,1007.43
2018-07-11T10:18:52.751Z,1007.44
2018-07-11T10:19:52.739Z,1007.42
2018-07-11T10:20:52.725Z,1007.48
2018-07-11T10:21:52.706Z,1007.44
2018-07-11T10:22:52.683Z,1007.44
2018-07-11T10:23:52.661Z,1007.44
2018-07-11T10:24:52.666Z,1007.42
2018-07-11T10:25:52.626Z,1007.42
2018-07-11T10:26:52.602Z,1007.40
2018-07-11T10:27:52.596Z,1007.41
2018-07-11T10:28:52.578Z,1007.40
2018-07-11T10:29:52.558Z,1007.43
2018-07-11T10:30:52.530Z,1007.42
2018-07-11T10:31:52.515Z,1007.43
2018-07-11T10:32:52.506Z,1007.44
2018-07-11T10:33:52.490Z,1007.43
2018-07-11T10:34:53.315Z,1007.46
2018-07-11T10:35:52.464Z,1007.47
2018-07-11T10:36:52.484Z,1007.46
2018-07-11T10:37:52.415Z,1007.41
2018-07-11T10:38:52.387Z,1007.41
2018-07-11T10:39:52.375Z,1007.41
2018-07-11T10:40:52.372Z,1007.40
2018-07-11T10:41:52.400Z,1007.39
2018-07-11T10:42:52.332Z,1007.37
2018-07-11T10:43:52.315Z,1007.39
2018-07-11T10:44:52.376Z,1007.41
2018-07-11T10:45:52.311Z,1007.39
2018-07-11T10:46:52.245Z,1007.42
2018-07-11T10:47:52.214Z,1007.38
2018-07-11T10:48:52.226Z,1007.39
2018-07-11T10:49:52.188Z,1007.38
2018-07-11T10:50:52.161Z,1007.36
2018-07-11T10:51:52.143Z,1007.38
2018-07-11T10:52:52.132Z,1007.43
2018-07-11T10:53:52.116Z,1007.43
2018-07-11T10:54:52.082Z,1007.45
2018-07-11T10:55:52.124Z,1007.48
2018-07-11T10:56:52.151Z,1007.49
2018-07-11T10:57:52.248Z,1007.54
2018-07-11T10:58:52.023Z,1007.49
2018-07-11T10:59:52.002Z,1007.52
2018-07-11T11:01:05.024Z,1007.51
2018-07-11T11:01:51.948Z,1007.52
2018-07-11T11:02:51.922Z,1007.49
2018-07-11T11:03:51.981Z,1007.50
2018-07-11T11:04:51.931Z,1007.48
2018-07-11T11:05:51.872Z,1007.51
2018-07-11T11:06:51.863Z,1007.54
2018-07-11T11:08:51.816Z,1007.54
2018-07-11T11:09:51.818Z,1007.56
2018-07-11T11:10:51.768Z,1007.56
2018-07-11T11:11:51.780Z,1007.59
2018-07-11T11:12:51.732Z,1007.57
2018-07-11T11:13:51.744Z,1007.58
2018-07-11T11:14:51.697Z,1007.57
2018-07-11T11:15:51.681Z,1007.59
2018-07-11T11:16:51.676Z,1007.60
2018-07-11T11:17:51.641Z,1007.63
2018-07-11T11:18:51.639Z,1007.62
2018-07-11T11:19:51.599Z,1007.63
2018-07-11T11:20:51.629Z,1007.59
2018-07-11T11:21:51.563Z,1007.60
2018-07-11T11:22:51.539Z,1007.60
2018-07-11T11:23:51.545Z,1007.57
2018-07-11T11:24:51.530Z,1007.61
2018-07-11T11:25:51.483Z,1007.58
2018-07-11T11:26:51.499Z,1007.58
2018-07-11T11:27:51.449Z,1007.62
2018-07-11T11:28:51.441Z,1007.63
2018-07-11T11:29:51.476Z,1007.63
2018-07-11T11:30:51.394Z,1007.62
2018-07-11T11:31:51.417Z,1007.64
2018-07-11T11:32:51.402Z,1007.66
2018-07-11T11:33:51.339Z,1007.65
2018-07-11T11:35:51.319Z,1007.66
2018-07-11T11:37:51.272Z,1007.64
2018-07-11T11:38:51.249Z,1007.66
2018-07-11T11:39:51.264Z,1007.63
2018-07-11T11:40:51.252Z,1007.66
2018-07-11T11:42:51.196Z,1007.66
2018-07-11T11:43:51.188Z,1007.71
2018-07-11T11:44:51.152Z,1007.68
2018-07-11T11:45:51.127Z,1007.69
2018-07-11T11:46:51.121Z,1007.71
2018-07-11T11:47:51.110Z,1007.69
2018-07-11T11:48:51.079Z,1007.70
2018-07-11T11:49:51.093Z,1007.68
2018-07-11T11:50:51.040Z,1007.72
2018-07-11T11:51:51.055Z,1007.71
2018-07-11T11:53:51.036Z,1007.68
2018-07-11T11:54:50.982Z,1007.67
2018-07-11T11:55:50.971Z,1007.64
2018-07-11T11:56:50.941Z,1007.67
2018-07-11T11:57:50.958Z,1007.66
2018-07-11T11:58:50.908Z,1007.67
2018-07-11T11:59:50.987Z,1007.70
2018-07-11T12:00:50.885Z,1007.65
2018-07-11T12:01:50.964Z,1007.66
2018-07-11T12:02:51.807Z,1007.66
2018-07-11T12:03:50.837Z,1007.64
2018-07-11T12:04:50.801Z,1007.66
2018-07-11T12:05:50.784Z,1007.65
2018-07-11T12:06:50.801Z,1007.62
2018-07-11T12:07:50.759Z,1007.59
2018-07-11T12:08:50.762Z,1007.64
2018-07-11T12:09:50.715Z,1007.63
2018-07-11T12:10:50.699Z,1007.64
2018-07-11T12:11:50.673Z,1007.61
2018-07-11T12:12:50.668Z,1007.63
2018-07-11T12:13:51.319Z,1007.65
2018-07-11T12:14:51.316Z,1007.59
2018-07-11T12:15:50.601Z,1007.59
2018-07-11T12:16:50.598Z,1007.57
2018-07-11T12:17:50.573Z,1007.58
2018-07-11T12:18:50.577Z,1007.61
2018-07-11T12:19:50.541Z,1007.57
2018-07-11T12:20:50.520Z,1007.57
2018-07-11T12:21:50.509Z,1007.56
2018-07-11T12:22:50.506Z,1007.56